sensor_id;sensor_type;location;lat;lon;timestamp;temperature;humidity
13569;DHT22;6856;51.460;7.158;2023-04-01T00:01:03;13.00;68.20
13569;DHT22;6856;51.460;7.158;2023-04-01T00:03:42;13.00;68.20
13569;DHT22;6856;51.460;7.158;2023-04-01T00:06:17;13.00;68.30
13569;DHT22;6856;51.460;7.158;2023-04-01T00:08:51;13.00;68.30
13569;DHT22;6856;51.460;7.158;2023-04-01T00:11:26;13.00;68.30
13569;DHT22;6856;51.460;7.158;2023-04-01T00:14:00;12.90;68.30
13569;DHT22;6856;51.460;7.158;2023-04-01T00:16:34;12.90;68.30
13569;DHT22;6856;51.460;7.158;2023-04-01T00:19:10;12.90;68.40
13569;DHT22;6856;51.460;7.158;2023-04-01T00:21:44;12.90;68.50
13569;DHT22;6856;51.460;7.158;2023-04-01T00:24:20;12.90;68.60
13569;DHT22;6856;51.460;7.158;2023-04-01T00:26:54;13.00;68.60
13569;DHT22;6856;51.460;7.158;2023-04-01T00:29:28;12.90;68.80
13569;DHT22;6856;51.460;7.158;2023-04-01T00:32:02;12.90;68.70
13569;DHT22;6856;51.460;7.158;2023-04-01T00:34:40;12.90;68.80
13569;DHT22;6856;51.460;7.158;2023-04-01T00:37:13;12.90;68.90
13569;DHT22;6856;51.460;7.158;2023-04-01T00:39:50;12.90;68.90
13569;DHT22;6856;51.460;7.158;2023-04-01T00:42:24;12.80;68.70
13569;DHT22;6856;51.460;7.158;2023-04-01T00:44:58;12.90;68.90
13569;DHT22;6856;51.460;7.158;2023-04-01T00:47:52;12.90;69.00
13569;DHT22;6856;51.460;7.158;2023-04-01T00:50:29;12.80;69.00
13569;DHT22;6856;51.460;7.158;2023-04-01T00:53:07;12.80;69.00
13569;DHT22;6856;51.460;7.158;2023-04-01T00:55:46;12.80;69.10
13569;DHT22;6856;51.460;7.158;2023-04-01T00:58:27;12.80;69.10
13569;DHT22;6856;51.460;7.158;2023-04-01T01:01:06;12.80;69.10
13569;DHT22;6856;51.460;7.158;2023-04-01T01:03:42;12.80;69.10
13569;DHT22;6856;51.460;7.158;2023-04-01T01:06:33;12.80;69.10
13569;DHT22;6856;51.460;7.158;2023-04-01T01:09:26;12.80;69.30
13569;DHT22;6856;51.460;7.158;2023-04-01T01:12:10;12.80;69.40
13569;DHT22;6856;51.460;7.158;2023-04-01T01:14:55;12.80;69.40
13569;DHT22;6856;51.460;7.158;2023-04-01T01:17:44;12.70;69.40
13569;DHT22;6856;51.460;7.158;2023-04-01T01:20:57;12.80;69.50
13569;DHT22;6856;51.460;7.158;2023-04-01T01:24:18;12.70;69.70
13569;DHT22;6856;51.460;7.158;2023-04-01T01:27:12;12.70;69.60
13569;DHT22;6856;51.460;7.158;2023-04-01T01:30:15;12.70;69.40
13569;DHT22;6856;51.460;7.158;2023-04-01T01:36:13;12.70;69.60
13569;DHT22;6856;51.460;7.158;2023-04-01T01:38:48;12.70;69.50
13569;DHT22;6856;51.460;7.158;2023-04-01T01:41:25;12.70;69.60
13569;DHT22;6856;51.460;7.158;2023-04-01T01:44:04;12.60;69.60
13569;DHT22;6856;51.460;7.158;2023-04-01T01:46:43;12.70;69.70
13569;DHT22;6856;51.460;7.158;2023-04-01T01:49:18;12.70;69.60
13569;DHT22;6856;51.460;7.158;2023-04-01T01:51:55;12.70;69.70
13569;DHT22;6856;51.460;7.158;2023-04-01T01:54:29;12.70;69.70
13569;DHT22;6856;51.460;7.158;2023-04-01T01:57:06;12.60;69.70
13569;DHT22;6856;51.460;7.158;2023-04-01T01:59:43;12.70;69.80
13569;DHT22;6856;51.460;7.158;2023-04-01T02:02:21;12.60;69.70
13569;DHT22;6856;51.460;7.158;2023-04-01T02:04:57;12.70;69.80
13569;DHT22;6856;51.460;7.158;2023-04-01T02:07:35;12.60;69.60
13569;DHT22;6856;51.460;7.158;2023-04-01T02:10:12;12.60;69.70
13569;DHT22;6856;51.460;7.158;2023-04-01T02:12:48;12.70;69.80
13569;DHT22;6856;51.460;7.158;2023-04-01T02:15:25;12.70;69.90
13569;DHT22;6856;51.460;7.158;2023-04-01T02:18:04;12.60;69.80
13569;DHT22;6856;51.460;7.158;2023-04-01T02:20:39;12.70;69.70
13569;DHT22;6856;51.460;7.158;2023-04-01T02:23:17;12.60;69.90
13569;DHT22;6856;51.460;7.158;2023-04-01T02:25:51;12.60;69.70
13569;DHT22;6856;51.460;7.158;2023-04-01T02:28:25;12.60;69.70
13569;DHT22;6856;51.460;7.158;2023-04-01T02:31:02;12.60;69.80
13569;DHT22;6856;51.460;7.158;2023-04-01T02:33:39;12.60;69.80
13569;DHT22;6856;51.460;7.158;2023-04-01T02:36:14;12.60;69.80
13569;DHT22;6856;51.460;7.158;2023-04-01T02:38:54;12.60;69.80
13569;DHT22;6856;51.460;7.158;2023-04-01T02:41:31;12.60;69.90
13569;DHT22;6856;51.460;7.158;2023-04-01T02:44:13;12.60;69.80
13569;DHT22;6856;51.460;7.158;2023-04-01T02:46:48;12.60;69.90
13569;DHT22;6856;51.460;7.158;2023-04-01T02:49:22;12.60;69.80
13569;DHT22;6856;51.460;7.158;2023-04-01T02:51:56;12.60;70.00
13569;DHT22;6856;51.460;7.158;2023-04-01T02:54:32;12.60;70.10
13569;DHT22;6856;51.460;7.158;2023-04-01T02:57:06;12.50;70.00
13569;DHT22;6856;51.460;7.158;2023-04-01T02:59:40;12.60;70.10
13569;DHT22;6856;51.460;7.158;2023-04-01T03:02:15;12.50;70.00
13569;DHT22;6856;51.460;7.158;2023-04-01T03:04:49;12.60;70.20
13569;DHT22;6856;51.460;7.158;2023-04-01T03:07:24;12.60;70.20
13569;DHT22;6856;51.460;7.158;2023-04-01T03:09:59;12.60;70.10
13569;DHT22;6856;51.460;7.158;2023-04-01T03:12:33;12.60;70.20
13569;DHT22;6856;51.460;7.158;2023-04-01T03:15:10;12.50;70.10
13569;DHT22;6856;51.460;7.158;2023-04-01T03:17:45;12.50;70.20
13569;DHT22;6856;51.460;7.158;2023-04-01T03:20:19;12.50;70.30
13569;DHT22;6856;51.460;7.158;2023-04-01T03:22:53;12.50;70.30
13569;DHT22;6856;51.460;7.158;2023-04-01T03:25:29;12.50;70.40
13569;DHT22;6856;51.460;7.158;2023-04-01T03:28:03;12.50;70.40
13569;DHT22;6856;51.460;7.158;2023-04-01T03:30:37;12.50;70.40
13569;DHT22;6856;51.460;7.158;2023-04-01T03:33:11;12.50;70.50
13569;DHT22;6856;51.460;7.158;2023-04-01T03:35:45;12.50;70.50
13569;DHT22;6856;51.460;7.158;2023-04-01T03:38:18;12.50;70.50
13569;DHT22;6856;51.460;7.158;2023-04-01T03:40:54;12.50;70.60
13569;DHT22;6856;51.460;7.158;2023-04-01T03:43:28;12.50;70.60
13569;DHT22;6856;51.460;7.158;2023-04-01T03:46:02;12.50;71.30
13569;DHT22;6856;51.460;7.158;2023-04-01T03:48:37;12.50;70.70
13569;DHT22;6856;51.460;7.158;2023-04-01T03:51:10;12.50;70.80
13569;DHT22;6856;51.460;7.158;2023-04-01T03:53:44;12.50;70.90
13569;DHT22;6856;51.460;7.158;2023-04-01T03:56:19;12.50;70.90
13569;DHT22;6856;51.460;7.158;2023-04-01T03:58:54;12.50;71.00
13569;DHT22;6856;51.460;7.158;2023-04-01T04:01:27;12.50;71.00
13569;DHT22;6856;51.460;7.158;2023-04-01T04:04:02;12.50;71.10
13569;DHT22;6856;51.460;7.158;2023-04-01T04:06:36;12.50;71.10
13569;DHT22;6856;51.460;7.158;2023-04-01T04:09:10;12.50;71.20
13569;DHT22;6856;51.460;7.158;2023-04-01T04:11:46;12.40;71.10
13569;DHT22;6856;51.460;7.158;2023-04-01T04:14:20;12.40;71.70
13569;DHT22;6856;51.460;7.158;2023-04-01T04:16:54;12.40;71.10
13569;DHT22;6856;51.460;7.158;2023-04-01T04:19:31;12.50;71.20
13569;DHT22;6856;51.460;7.158;2023-04-01T04:22:06;12.40;71.20
13569;DHT22;6856;51.460;7.158;2023-04-01T04:24:40;12.60;71.30
13569;DHT22;6856;51.460;7.158;2023-04-01T04:27:16;12.50;71.20
13569;DHT22;6856;51.460;7.158;2023-04-01T04:29:50;12.50;71.30
13569;DHT22;6856;51.460;7.158;2023-04-01T04:32:24;12.50;71.40
13569;DHT22;6856;51.460;7.158;2023-04-01T04:35:00;12.40;71.30
13569;DHT22;6856;51.460;7.158;2023-04-01T04:37:34;12.40;71.30
13569;DHT22;6856;51.460;7.158;2023-04-01T04:40:10;12.50;71.40
13569;DHT22;6856;51.460;7.158;2023-04-01T04:42:46;12.50;71.50
13569;DHT22;6856;51.460;7.158;2023-04-01T04:45:20;12.50;71.30
13569;DHT22;6856;51.460;7.158;2023-04-01T04:47:54;12.40;71.30
13569;DHT22;6856;51.460;7.158;2023-04-01T04:50:30;12.50;71.40
13569;DHT22;6856;51.460;7.158;2023-04-01T04:53:04;12.60;71.50
13569;DHT22;6856;51.460;7.158;2023-04-01T04:55:43;12.50;71.40
13569;DHT22;6856;51.460;7.158;2023-04-01T04:58:19;12.50;71.50
13569;DHT22;6856;51.460;7.158;2023-04-01T05:00:53;12.50;71.50
13569;DHT22;6856;51.460;7.158;2023-04-01T05:03:27;12.50;71.50
13569;DHT22;6856;51.460;7.158;2023-04-01T05:06:04;12.50;71.50
13569;DHT22;6856;51.460;7.158;2023-04-01T05:08:39;12.50;71.70
13569;DHT22;6856;51.460;7.158;2023-04-01T05:11:16;12.50;71.70
13569;DHT22;6856;51.460;7.158;2023-04-01T05:13:53;12.50;71.60
13569;DHT22;6856;51.460;7.158;2023-04-01T05:16:27;12.50;71.60
13569;DHT22;6856;51.460;7.158;2023-04-01T05:19:01;12.50;71.60
13569;DHT22;6856;51.460;7.158;2023-04-01T05:21:35;12.50;71.60
13569;DHT22;6856;51.460;7.158;2023-04-01T05:24:09;12.50;71.60
13569;DHT22;6856;51.460;7.158;2023-04-01T05:26:43;12.50;71.60
13569;DHT22;6856;51.460;7.158;2023-04-01T05:29:18;12.50;71.60
13569;DHT22;6856;51.460;7.158;2023-04-01T05:31:52;12.50;71.60
13569;DHT22;6856;51.460;7.158;2023-04-01T05:34:27;12.50;71.60
13569;DHT22;6856;51.460;7.158;2023-04-01T05:37:01;12.50;71.60
13569;DHT22;6856;51.460;7.158;2023-04-01T05:39:36;12.60;71.80
13569;DHT22;6856;51.460;7.158;2023-04-01T05:42:11;12.50;71.70
13569;DHT22;6856;51.460;7.158;2023-04-01T05:44:47;12.50;71.70
13569;DHT22;6856;51.460;7.158;2023-04-01T05:47:21;12.50;71.80
13569;DHT22;6856;51.460;7.158;2023-04-01T05:49:55;12.60;71.80
13569;DHT22;6856;51.460;7.158;2023-04-01T05:52:29;12.50;71.70
13569;DHT22;6856;51.460;7.158;2023-04-01T05:55:03;12.50;71.70
13569;DHT22;6856;51.460;7.158;2023-04-01T05:57:37;12.50;71.90
13569;DHT22;6856;51.460;7.158;2023-04-01T06:00:15;12.50;71.80
13569;DHT22;6856;51.460;7.158;2023-04-01T06:02:51;12.50;71.90
13569;DHT22;6856;51.460;7.158;2023-04-01T06:05:28;12.50;71.80
13569;DHT22;6856;51.460;7.158;2023-04-01T06:08:09;12.50;71.90
13569;DHT22;6856;51.460;7.158;2023-04-01T06:11:03;12.50;71.90
13569;DHT22;6856;51.460;7.158;2023-04-01T06:14:06;12.50;72.00
13569;DHT22;6856;51.460;7.158;2023-04-01T06:17:05;12.50;72.00
13569;DHT22;6856;51.460;7.158;2023-04-01T06:19:57;12.60;72.10
13569;DHT22;6856;51.460;7.158;2023-04-01T06:23:01;12.50;72.00
13569;DHT22;6856;51.460;7.158;2023-04-01T06:25:58;12.50;72.10
13569;DHT22;6856;51.460;7.158;2023-04-01T06:29:02;12.60;72.10
13569;DHT22;6856;51.460;7.158;2023-04-01T06:32:26;12.60;72.10
13569;DHT22;6856;51.460;7.158;2023-04-01T06:35:41;12.60;72.20
13569;DHT22;6856;51.460;7.158;2023-04-01T06:38:41;12.50;72.00
13569;DHT22;6856;51.460;7.158;2023-04-01T06:41:43;12.60;72.20
13569;DHT22;6856;51.460;7.158;2023-04-01T06:44:38;12.60;72.20
13569;DHT22;6856;51.460;7.158;2023-04-01T06:47:34;12.60;72.10
13569;DHT22;6856;51.460;7.158;2023-04-01T06:50:23;12.60;72.40
13569;DHT22;6856;51.460;7.158;2023-04-01T06:53:09;12.60;72.20
13569;DHT22;6856;51.460;7.158;2023-04-01T06:55:55;12.60;72.20
13569;DHT22;6856;51.460;7.158;2023-04-01T06:58:37;12.60;72.20
13569;DHT22;6856;51.460;7.158;2023-04-01T07:01:19;12.60;72.20
13569;DHT22;6856;51.460;7.158;2023-04-01T07:04:04;12.60;72.20
13569;DHT22;6856;51.460;7.158;2023-04-01T07:06:47;12.60;72.20
13569;DHT22;6856;51.460;7.158;2023-04-01T07:09:27;12.60;72.30
13569;DHT22;6856;51.460;7.158;2023-04-01T07:12:10;12.60;72.30
13569;DHT22;6856;51.460;7.158;2023-04-01T07:14:53;12.60;72.40
13569;DHT22;6856;51.460;7.158;2023-04-01T07:17:32;12.60;72.40
13569;DHT22;6856;51.460;7.158;2023-04-01T07:20:17;12.60;72.40
13569;DHT22;6856;51.460;7.158;2023-04-01T07:22:59;12.60;72.40
13569;DHT22;6856;51.460;7.158;2023-04-01T07:25:37;12.60;72.30
13569;DHT22;6856;51.460;7.158;2023-04-01T07:28:16;12.60;72.50
13569;DHT22;6856;51.460;7.158;2023-04-01T07:30:58;12.60;71.80
13569;DHT22;6856;51.460;7.158;2023-04-01T07:33:44;12.60;72.60
13569;DHT22;6856;51.460;7.158;2023-04-01T07:36:33;12.60;72.50
13569;DHT22;6856;51.460;7.158;2023-04-01T07:39:25;12.60;72.60
13569;DHT22;6856;51.460;7.158;2023-04-01T07:42:11;12.60;72.70
13569;DHT22;6856;51.460;7.158;2023-04-01T07:45:00;12.70;72.70
13569;DHT22;6856;51.460;7.158;2023-04-01T07:47:54;12.70;72.70
13569;DHT22;6856;51.460;7.158;2023-04-01T07:50:41;12.70;72.70
13569;DHT22;6856;51.460;7.158;2023-04-01T07:53:31;12.70;72.60
13569;DHT22;6856;51.460;7.158;2023-04-01T07:56:14;12.70;72.60
13569;DHT22;6856;51.460;7.158;2023-04-01T07:58:57;12.70;72.60
13569;DHT22;6856;51.460;7.158;2023-04-01T08:01:42;12.70;72.70
13569;DHT22;6856;51.460;7.158;2023-04-01T08:04:40;12.70;72.70
13569;DHT22;6856;51.460;7.158;2023-04-01T08:07:25;12.80;72.80
13569;DHT22;6856;51.460;7.158;2023-04-01T08:10:12;12.80;72.60
13569;DHT22;6856;51.460;7.158;2023-04-01T08:12:59;12.80;72.60
13569;DHT22;6856;51.460;7.158;2023-04-01T08:15:46;12.80;72.60
13569;DHT22;6856;51.460;7.158;2023-04-01T08:18:35;12.80;72.50
13569;DHT22;6856;51.460;7.158;2023-04-01T08:21:17;12.80;72.50
13569;DHT22;6856;51.460;7.158;2023-04-01T08:23:57;12.80;72.40
13569;DHT22;6856;51.460;7.158;2023-04-01T08:26:37;12.80;72.50
13569;DHT22;6856;51.460;7.158;2023-04-01T08:29:19;12.80;72.50
13569;DHT22;6856;51.460;7.158;2023-04-01T08:31:58;12.80;72.40
13569;DHT22;6856;51.460;7.158;2023-04-01T08:34:38;12.80;72.50
13569;DHT22;6856;51.460;7.158;2023-04-01T08:37:17;12.80;72.40
13569;DHT22;6856;51.460;7.158;2023-04-01T08:39:58;12.80;72.50
13569;DHT22;6856;51.460;7.158;2023-04-01T08:42:50;12.80;72.60
13569;DHT22;6856;51.460;7.158;2023-04-01T08:46:04;12.80;72.80
13569;DHT22;6856;51.460;7.158;2023-04-01T08:49:08;12.80;72.80
13569;DHT22;6856;51.460;7.158;2023-04-01T08:52:15;12.80;72.70
13569;DHT22;6856;51.460;7.158;2023-04-01T08:55:24;12.80;72.80
13569;DHT22;6856;51.460;7.158;2023-04-01T08:58:34;12.80;72.90
13569;DHT22;6856;51.460;7.158;2023-04-01T09:05:16;12.80;72.80
13569;DHT22;6856;51.460;7.158;2023-04-01T09:08:18;12.80;72.90
13569;DHT22;6856;51.460;7.158;2023-04-01T09:11:08;12.80;72.80
13569;DHT22;6856;51.460;7.158;2023-04-01T09:14:19;12.80;72.90
13569;DHT22;6856;51.460;7.158;2023-04-01T09:17:44;12.90;73.20
13569;DHT22;6856;51.460;7.158;2023-04-01T09:20:58;12.90;73.30
13569;DHT22;6856;51.460;7.158;2023-04-01T09:24:13;12.90;73.00
13569;DHT22;6856;51.460;7.158;2023-04-01T09:27:15;12.90;73.10
13569;DHT22;6856;51.460;7.158;2023-04-01T09:36:43;12.90;72.90
13569;DHT22;6856;51.460;7.158;2023-04-01T09:39:36;12.90;72.70
13569;DHT22;6856;51.460;7.158;2023-04-01T09:42:32;12.90;72.90
13569;DHT22;6856;51.460;7.158;2023-04-01T09:45:28;12.90;73.00
13569;DHT22;6856;51.460;7.158;2023-04-01T09:48:26;13.10;73.00
13569;DHT22;6856;51.460;7.158;2023-04-01T09:51:26;12.90;73.00
13569;DHT22;6856;51.460;7.158;2023-04-01T09:54:17;13.00;73.00
13569;DHT22;6856;51.460;7.158;2023-04-01T09:57:49;13.00;73.10
13569;DHT22;6856;51.460;7.158;2023-04-01T10:01:18;13.00;73.40
13569;DHT22;6856;51.460;7.158;2023-04-01T10:08:08;13.10;73.60
13569;DHT22;6856;51.460;7.158;2023-04-01T10:11:23;13.10;73.60
13569;DHT22;6856;51.460;7.158;2023-04-01T10:14:45;13.10;73.60
13569;DHT22;6856;51.460;7.158;2023-04-01T10:21:42;13.20;73.50
13569;DHT22;6856;51.460;7.158;2023-04-01T10:25:18;13.30;73.50
13569;DHT22;6856;51.460;7.158;2023-04-01T10:28:27;13.30;73.50
13569;DHT22;6856;51.460;7.158;2023-04-01T10:49:17;13.40;73.70
13569;DHT22;6856;51.460;7.158;2023-04-01T10:59:53;13.40;73.30
13569;DHT22;6856;51.460;7.158;2023-04-01T11:03:26;13.40;73.00
13569;DHT22;6856;51.460;7.158;2023-04-01T11:10:54;13.40;73.10
13569;DHT22;6856;51.460;7.158;2023-04-01T11:14:04;13.40;73.10
13569;DHT22;6856;51.460;7.158;2023-04-01T11:21:23;13.40;73.00
13569;DHT22;6856;51.460;7.158;2023-04-01T11:24:36;13.50;73.00
13569;DHT22;6856;51.460;7.158;2023-04-01T11:28:02;13.40;72.80
13569;DHT22;6856;51.460;7.158;2023-04-01T11:31:11;13.40;72.80
13569;DHT22;6856;51.460;7.158;2023-04-01T11:34:27;13.40;72.80
13569;DHT22;6856;51.460;7.158;2023-04-01T11:37:25;13.40;73.60
13569;DHT22;6856;51.460;7.158;2023-04-01T11:40:20;13.40;72.80
13569;DHT22;6856;51.460;7.158;2023-04-01T11:43:11;13.40;73.00
13569;DHT22;6856;51.460;7.158;2023-04-01T11:46:10;13.40;73.00
13569;DHT22;6856;51.460;7.158;2023-04-01T11:48:52;13.40;73.00
13569;DHT22;6856;51.460;7.158;2023-04-01T11:51:53;13.40;73.30
13569;DHT22;6856;51.460;7.158;2023-04-01T11:58:13;13.50;73.50
13569;DHT22;6856;51.460;7.158;2023-04-01T12:01:33;13.60;73.60
13569;DHT22;6856;51.460;7.158;2023-04-01T12:07:56;13.60;73.60
13569;DHT22;6856;51.460;7.158;2023-04-01T12:10:42;13.60;73.50
13569;DHT22;6856;51.460;7.158;2023-04-01T12:13:34;13.70;73.60
13569;DHT22;6856;51.460;7.158;2023-04-01T12:16:41;13.70;73.60
13569;DHT22;6856;51.460;7.158;2023-04-01T12:19:31;13.70;73.80
13569;DHT22;6856;51.460;7.158;2023-04-01T12:22:26;13.80;73.60
13569;DHT22;6856;51.460;7.158;2023-04-01T12:25:22;13.80;73.60
13569;DHT22;6856;51.460;7.158;2023-04-01T12:28:13;13.80;73.50
13569;DHT22;6856;51.460;7.158;2023-04-01T12:31:14;13.80;73.40
13569;DHT22;6856;51.460;7.158;2023-04-01T12:37:41;13.90;73.50
13569;DHT22;6856;51.460;7.158;2023-04-01T12:43:57;13.90;73.50
13569;DHT22;6856;51.460;7.158;2023-04-01T12:47:19;13.90;73.60
13569;DHT22;6856;51.460;7.158;2023-04-01T12:50:43;13.90;73.40
13569;DHT22;6856;51.460;7.158;2023-04-01T12:53:45;13.90;73.60
13569;DHT22;6856;51.460;7.158;2023-04-01T12:56:41;13.90;73.40
13569;DHT22;6856;51.460;7.158;2023-04-01T13:02:35;14.00;73.60
13569;DHT22;6856;51.460;7.158;2023-04-01T13:05:57;14.00;73.40
13569;DHT22;6856;51.460;7.158;2023-04-01T13:09:01;14.00;73.40
13569;DHT22;6856;51.460;7.158;2023-04-01T13:12:17;14.00;73.00
13569;DHT22;6856;51.460;7.158;2023-04-01T13:15:26;14.10;73.10
13569;DHT22;6856;51.460;7.158;2023-04-01T13:18:20;14.10;72.90
13569;DHT22;6856;51.460;7.158;2023-04-01T13:21:08;14.00;72.70
13569;DHT22;6856;51.460;7.158;2023-04-01T13:23:57;14.00;72.70
13569;DHT22;6856;51.460;7.158;2023-04-01T13:26:45;14.00;72.60
13569;DHT22;6856;51.460;7.158;2023-04-01T13:29:30;14.00;72.50
13569;DHT22;6856;51.460;7.158;2023-04-01T13:32:27;14.00;72.30
13569;DHT22;6856;51.460;7.158;2023-04-01T13:35:30;14.00;72.40
13569;DHT22;6856;51.460;7.158;2023-04-01T13:41:25;13.90;72.20
13569;DHT22;6856;51.460;7.158;2023-04-01T13:44:12;13.90;72.20
13569;DHT22;6856;51.460;7.158;2023-04-01T13:50:25;13.80;72.40
13569;DHT22;6856;51.460;7.158;2023-04-01T13:53:18;13.80;72.40
13569;DHT22;6856;51.460;7.158;2023-04-01T13:56:19;13.80;72.60
13569;DHT22;6856;51.460;7.158;2023-04-01T13:59:23;13.80;72.70
13569;DHT22;6856;51.460;7.158;2023-04-01T14:02:29;13.80;72.70
13569;DHT22;6856;51.460;7.158;2023-04-01T14:06:08;13.80;72.70
13569;DHT22;6856;51.460;7.158;2023-04-01T14:12:08;13.80;72.70
13569;DHT22;6856;51.460;7.158;2023-04-01T14:14:54;13.80;72.60
13569;DHT22;6856;51.460;7.158;2023-04-01T14:17:54;13.80;72.70
13569;DHT22;6856;51.460;7.158;2023-04-01T14:20:39;13.80;72.70
13569;DHT22;6856;51.460;7.158;2023-04-01T14:23:40;13.80;72.70
13569;DHT22;6856;51.460;7.158;2023-04-01T14:26:40;13.80;72.90
13569;DHT22;6856;51.460;7.158;2023-04-01T14:29:33;13.80;72.90
13569;DHT22;6856;51.460;7.158;2023-04-01T14:32:23;13.80;72.80
13569;DHT22;6856;51.460;7.158;2023-04-01T14:35:29;13.80;72.80
13569;DHT22;6856;51.460;7.158;2023-04-01T14:38:35;13.80;72.90
13569;DHT22;6856;51.460;7.158;2023-04-01T14:41:32;13.80;72.90
13569;DHT22;6856;51.460;7.158;2023-04-01T14:44:28;13.80;72.80
13569;DHT22;6856;51.460;7.158;2023-04-01T14:47:28;13.80;72.70
13569;DHT22;6856;51.460;7.158;2023-04-01T14:50:18;13.80;72.70
13569;DHT22;6856;51.460;7.158;2023-04-01T14:52:59;13.80;72.70
13569;DHT22;6856;51.460;7.158;2023-04-01T14:55:51;13.80;72.90
13569;DHT22;6856;51.460;7.158;2023-04-01T14:58:42;13.80;73.10
13569;DHT22;6856;51.460;7.158;2023-04-01T15:01:30;13.80;73.20
13569;DHT22;6856;51.460;7.158;2023-04-01T15:07:54;13.80;73.30
13569;DHT22;6856;51.460;7.158;2023-04-01T15:14:11;13.90;73.20
13569;DHT22;6856;51.460;7.158;2023-04-01T15:17:32;13.90;73.00
13569;DHT22;6856;51.460;7.158;2023-04-01T15:20:30;13.80;73.00
13569;DHT22;6856;51.460;7.158;2023-04-01T15:23:37;13.90;73.00
13569;DHT22;6856;51.460;7.158;2023-04-01T15:26:30;13.80;73.10
13569;DHT22;6856;51.460;7.158;2023-04-01T15:32:29;13.90;73.10
13569;DHT22;6856;51.460;7.158;2023-04-01T15:35:20;13.90;73.00
13569;DHT22;6856;51.460;7.158;2023-04-01T15:38:08;13.90;73.20
13569;DHT22;6856;51.460;7.158;2023-04-01T15:40:53;13.90;73.20
13569;DHT22;6856;51.460;7.158;2023-04-01T15:43:41;13.90;73.30
13569;DHT22;6856;51.460;7.158;2023-04-01T15:46:41;13.90;73.30
13569;DHT22;6856;51.460;7.158;2023-04-01T15:49:26;14.00;73.50
13569;DHT22;6856;51.460;7.158;2023-04-01T15:52:17;14.00;73.30
13569;DHT22;6856;51.460;7.158;2023-04-01T15:55:17;14.00;73.20
13569;DHT22;6856;51.460;7.158;2023-04-01T15:58:26;14.00;73.20
13569;DHT22;6856;51.460;7.158;2023-04-01T16:01:23;14.00;73.10
13569;DHT22;6856;51.460;7.158;2023-04-01T16:04:17;14.00;72.90
13569;DHT22;6856;51.460;7.158;2023-04-01T16:07:10;14.00;72.90
13569;DHT22;6856;51.460;7.158;2023-04-01T16:10:05;14.00;72.90
13569;DHT22;6856;51.460;7.158;2023-04-01T16:13:04;14.00;72.90
13569;DHT22;6856;51.460;7.158;2023-04-01T16:16:00;14.00;72.90
13569;DHT22;6856;51.460;7.158;2023-04-01T16:22:01;14.00;72.80
13569;DHT22;6856;51.460;7.158;2023-04-01T16:24:43;13.90;72.70
13569;DHT22;6856;51.460;7.158;2023-04-01T16:27:27;13.90;72.60
13569;DHT22;6856;51.460;7.158;2023-04-01T16:30:25;13.90;72.60
13569;DHT22;6856;51.460;7.158;2023-04-01T16:33:13;13.90;72.70
13569;DHT22;6856;51.460;7.158;2023-04-01T16:35:59;13.90;72.60
13569;DHT22;6856;51.460;7.158;2023-04-01T16:38:52;13.90;72.60
13569;DHT22;6856;51.460;7.158;2023-04-01T16:41:31;13.90;72.60
13569;DHT22;6856;51.460;7.158;2023-04-01T16:44:16;13.90;72.60
13569;DHT22;6856;51.460;7.158;2023-04-01T16:46:54;13.90;72.80
13569;DHT22;6856;51.460;7.158;2023-04-01T16:49:33;13.90;72.80
13569;DHT22;6856;51.460;7.158;2023-04-01T16:52:17;13.90;72.70
13569;DHT22;6856;51.460;7.158;2023-04-01T16:55:15;13.90;72.90
13569;DHT22;6856;51.460;7.158;2023-04-01T16:57:52;13.80;72.90
13569;DHT22;6856;51.460;7.158;2023-04-01T17:00:37;13.80;72.90
13569;DHT22;6856;51.460;7.158;2023-04-01T17:03:18;13.80;73.00
13569;DHT22;6856;51.460;7.158;2023-04-01T17:06:24;13.90;73.00
13569;DHT22;6856;51.460;7.158;2023-04-01T17:09:29;13.80;73.00
13569;DHT22;6856;51.460;7.158;2023-04-01T17:12:20;13.80;73.10
13569;DHT22;6856;51.460;7.158;2023-04-01T17:15:07;13.90;73.00
13569;DHT22;6856;51.460;7.158;2023-04-01T17:17:57;13.80;72.90
13569;DHT22;6856;51.460;7.158;2023-04-01T17:20:40;13.80;72.90
13569;DHT22;6856;51.460;7.158;2023-04-01T17:23:24;13.80;73.00
13569;DHT22;6856;51.460;7.158;2023-04-01T17:26:20;13.80;73.00
13569;DHT22;6856;51.460;7.158;2023-04-01T17:29:11;13.80;73.20
13569;DHT22;6856;51.460;7.158;2023-04-01T17:32:01;13.80;73.10
13569;DHT22;6856;51.460;7.158;2023-04-01T17:34:52;13.80;73.20
13569;DHT22;6856;51.460;7.158;2023-04-01T17:37:44;13.80;73.20
13569;DHT22;6856;51.460;7.158;2023-04-01T17:40:37;13.80;73.10
13569;DHT22;6856;51.460;7.158;2023-04-01T17:43:23;13.80;73.20
13569;DHT22;6856;51.460;7.158;2023-04-01T17:46:20;13.80;73.10
13569;DHT22;6856;51.460;7.158;2023-04-01T17:49:19;13.80;73.10
13569;DHT22;6856;51.460;7.158;2023-04-01T17:52:09;13.80;73.00
13569;DHT22;6856;51.460;7.158;2023-04-01T17:54:56;13.80;73.10
13569;DHT22;6856;51.460;7.158;2023-04-01T17:57:45;13.80;73.00
13569;DHT22;6856;51.460;7.158;2023-04-01T18:00:30;13.70;73.10
13569;DHT22;6856;51.460;7.158;2023-04-01T18:03:49;13.70;73.00
13569;DHT22;6856;51.460;7.158;2023-04-01T18:06:53;13.70;73.10
13569;DHT22;6856;51.460;7.158;2023-04-01T18:09:57;13.70;73.20
13569;DHT22;6856;51.460;7.158;2023-04-01T18:12:55;13.70;73.90
13569;DHT22;6856;51.460;7.158;2023-04-01T18:16:01;13.70;73.20
13569;DHT22;6856;51.460;7.158;2023-04-01T18:18:53;13.70;73.10
13569;DHT22;6856;51.460;7.158;2023-04-01T18:21:41;13.70;73.10
13569;DHT22;6856;51.460;7.158;2023-04-01T18:24:24;13.70;73.20
13569;DHT22;6856;51.460;7.158;2023-04-01T18:27:03;13.70;73.20
13569;DHT22;6856;51.460;7.158;2023-04-01T18:29:49;13.70;73.10
13569;DHT22;6856;51.460;7.158;2023-04-01T18:32:33;13.70;73.50
13569;DHT22;6856;51.460;7.158;2023-04-01T18:35:21;13.70;73.30
13569;DHT22;6856;51.460;7.158;2023-04-01T19:07:40;12.00;76.00
13569;DHT22;6856;51.460;7.158;2023-04-01T19:10:22;11.70;76.90
13569;DHT22;6856;51.460;7.158;2023-04-01T19:13:13;11.80;76.70
13569;DHT22;6856;51.460;7.158;2023-04-01T19:15:58;11.90;76.60
13569;DHT22;6856;51.460;7.158;2023-04-01T19:18:58;11.80;76.20
13569;DHT22;6856;51.460;7.158;2023-04-01T19:21:42;12.20;76.40
13569;DHT22;6856;51.460;7.158;2023-04-01T19:25:01;12.40;76.00
13569;DHT22;6856;51.460;7.158;2023-04-01T19:27:48;12.50;76.30
13569;DHT22;6856;51.460;7.158;2023-04-01T19:30:33;12.60;75.90
13569;DHT22;6856;51.460;7.158;2023-04-01T19:33:28;12.70;76.00
13569;DHT22;6856;51.460;7.158;2023-04-01T19:36:18;12.80;75.90
13569;DHT22;6856;51.460;7.158;2023-04-01T19:39:09;12.80;75.60
13569;DHT22;6856;51.460;7.158;2023-04-01T19:42:03;12.90;75.60
13569;DHT22;6856;51.460;7.158;2023-04-01T19:44:54;13.00;75.50
13569;DHT22;6856;51.460;7.158;2023-04-01T19:47:48;13.00;76.00
13569;DHT22;6856;51.460;7.158;2023-04-01T19:50:36;12.90;75.10
13569;DHT22;6856;51.460;7.158;2023-04-01T19:53:24;13.10;75.00
13569;DHT22;6856;51.460;7.158;2023-04-01T19:56:14;13.10;75.00
13569;DHT22;6856;51.460;7.158;2023-04-01T19:58:54;13.20;74.90
13569;DHT22;6856;51.460;7.158;2023-04-01T20:01:35;13.20;74.80
13569;DHT22;6856;51.460;7.158;2023-04-01T20:04:21;13.20;74.60